This is the latest recevied weather packets stored in our database for station/object KA6AKH-13. If no packets are shown the sender has not sent any weather packets the latest 10 day(s).
| Time | Temp. | Humidity | Pressure | Rain* | Wind** | Luminosity | Snow |
|---|---|---|---|---|---|---|---|
| 1777775455 | 12.22° C | 53% | 1013.6 hPa | 0 mm | - | - | - |
| 1777774825 | 12.22° C | 53% | 1013.6 hPa | 0 mm | - | - | - |
| 1777771178 | 12.78° C | 53% | 1013.1 hPa | 0 mm | - | - | - |
| 1777771104 | 12.78° C | 53% | 1013.1 hPa | 0 mm | - | - | - |
| 1777770678 | 12.78° C | 52% | 1012.9 hPa | 0 mm | - | - | - |
| 1777770475 | 12.78° C | 52% | 1012.9 hPa | 0 mm | - | - | - |
| 1777769215 | 12.78° C | 52% | 1012.7 hPa | 0 mm | - | - | - |
| 1777766726 | 13.89° C | 48% | 1012.1 hPa | 0 mm | - | - | - |
| 1777766125 | 13.89° C | 49% | 1012 hPa | 0 mm | - | - | - |
| 1777764296 | 14.44° C | 48% | 1011.6 hPa | 0 mm | - | - | - |
| 1777763668 | 14.44° C | 47% | 1011.6 hPa | 0 mm | - | - | - |
| 1777763065 | 14.44° C | 48% | 1011.7 hPa | 0 mm | - | - | - |
| 1777762435 | 14.44° C | 47% | 1011.7 hPa | 0 mm | - | - | - |
| 1777761805 | 14.44° C | 47% | 1011.6 hPa | 0 mm | - | - | - |
| 1777761205 | 15° C | 44% | 1011.7 hPa | 0 mm | - | - | - |
| 1777759974 | 15° C | 45% | 1011.7 hPa | 0 mm | - | - | - |
| 1777759346 | 15° C | 44% | 1011.8 hPa | 0 mm | - | - | - |
| 1777757515 | 16.11° C | 42% | 1011.5 hPa | 0 mm | - | - | - |
| 1777756917 | 16.11° C | 38% | 1011.5 hPa | 0 mm | - | - | - |
| 1777755589 | 16.11° C | 40% | 1011.4 hPa | 0 mm | - | - | - |
| 1777755054 | 16.11° C | 40% | 1011.4 hPa | 0 mm | - | - | - |
| 1777753824 | 15.56° C | 42% | 1011.3 hPa | 0 mm | - | - | - |
| 1777752564 | 15.56° C | 42% | 1011.4 hPa | 0 mm | - | - | - |
| 1777750735 | 16.67° C | 40% | 1011.7 hPa | 0 mm | - | - | - |
| 1777750136 | 16.67° C | 42% | 1011.9 hPa | 0 mm | - | - | - |
* Rain latest hour (hover to see other rain measurements)
** Current wind speed in m/s (hover to see current wind gust speed)